View Sortable Currents For Network
ASOSAWOSCoCoRaHSCOOPDCPISUSM
SchoolNetOtherSCANMy FavoritesBy StateRWIS
RWIS SurfaceRWIS TrafficRWIS SoilBy NWS WFO

Current AWOS Conditions

** This page will automatically refresh every five minutes.
Sorted by: (Today's Low Temperature)     Click on a column to sort it.

Add ID: Name: Ob Time   Wind [knots]   Rainfall
Temp (Hi / Lo) DewP Feels RH% Dir Speed Peak Gust
@ Time
Alti Vsby Hour Today
OXVKnoxville08:55 AM 75(75/73) 70 75 84 340 911 @ 06:35 AM 30.03 10 0
VTIVINTON08:55 AM 76(76/72) 69 77 79 10 914 @ 07:55 AM 30.02 10 0
MUTMUSCATINE08:55 AM 79(79/72) 75 83 88 330 511 @ 06:35 AM 29.98 10 0
FSWFORT MADISON08:55 AM 82(82/72) 75 89 79 310 44 @ 08:55 AM 30 10 0
FFLFAIRFIELD08:55 AM 79(79/72) 73 82 82 350 811 @ 08:15 AM 30 10 0 0.02
CBFCOUNCIL BLUFFS08:55 AM 73(77/72) 66 74 79 30 1010 @ 07:35 AM 30.09 10 0
TNUNEWTON MUNI08:55 AM 73(75/72) 70 75 90 20 914 @ 07:55 AM 30.04 10 0
PEAPELLA08:55 AM 77(77/71) 70 79 79 350 37 @ 07:55 AM 30.05 10 0
GGIGrinnell08:55 AM 74(74/70) 68 76 82 330 89 @ 07:35 AM 30.05 10 0
I75Osceola08:55 AM 74(75/70) 71 77 90 360 67 @ 07:55 AM 30.06 10 0
IKVANKENY08:55 AM 73(79/70) 68 75 84 360 89 @ 05:55 AM 30.06 10 0
AWGWASHINGTON08:55 AM 77(77/70) 77 78 100 350 1012 @ 07:55 AM 30.01 10 0
CSQCRESTON08:55 AM 72(72/70) 70 75 93 40 5G1111 @ 08:55 AM 30.08 10 0
OLZOELWEIN08:55 AM 72(77/70) 66 73 81 10 1015 @ 07:35 AM 30.05 10 0
CNCCHARITON08:55 AM 73(75/70) 72 76 97 340 913 @ 08:35 AM 30.05 10 0
EOKKEOKUK MUNI08:55 AM 81(81/70) 73 86 77 310 66 @ 08:55 AM 29.98 10 0
MPZMOUNT PLEASANT08:55 AM 81(81/70) 75 87 82 350 66 @ 08:55 AM 29.99 10 0 0.0001
IIBINDEPENDENCE08:55 AM 73(74/69) 66 74 79 360 916 @ 01:35 AM 30.03 10 0
OOAOskaloosa08:55 AM 76(76/69) 72 76 87 350 810 @ 07:35 AM 30.03 10 0
PROPerry08:55 AM 72(72/69) 66 81 6 @ 05:55 AM 30.08 10 0
CCYCHARLES CITY08:55 AM 70(73/68) 61 70 73 360 1015 @ 04:15 AM 30.07 10 0
HNRHARLAN08:55 AM 72(72/68) 64 73 76 50 812 @ 07:35 AM 30.09 10 0
TVKCenterville08:55 AM 81(81/68) 75 82 0 06 @ 07:35 AM 30.04 10 0
SDASHENANDOAH MUNI08:55 AM 77(77/68) 72 78 85 40 56 @ 08:35 AM 30.07 10 0
RDKRED OAK08:55 AM 75(75/68) 72 74 90 10 99 @ 07:55 AM 30.07 10 0
MXOMONTICELLO MUNI08:55 AM 75(75/68) 73 73 94 360 813 @ 08:35 AM 30 10 0 0.03
CWICLINTON08:56 AM 77(77/68) 73 78 87 310 46 @ 03:00 AM 29.98 10 0
AIOATLANTIC08:55 AM 72(72/68) 66 73 81 20 79 @ 07:55 AM 30.08 10 0
DEHDECORAH08:55 AM 72(73/68) 63 73 73 20 715 @ 08:35 AM 30.04 10 0
IFAIowa Falls08:55 AM 72(74/68) 62 72 71 10 89 @ 08:35 AM 30.08 10 0 0.0001
CINCARROLL08:55 AM 72(72/66) 63 73 73 20 1010 @ 08:15 AM 30.09 10 0
ADUAUDUBON08:55 AM 72(72/66) 64 73 76 10 68 @ 07:55 AM 30.1 10 0
DNSDENISON08:55 AM 70(73/66) 61 70 73 40 6G1212 @ 08:55 AM 30.12 10 0
BNWBOONE MUNI08:55 AM 72(73/66) 64 73 76 30 1014 @ 03:55 AM 30.07 10 0
FODFORT DODGE08:56 AM 71(72/66) 61 71 71 40 68 @ 08:35 AM 30.09 10 0 0
ICLCLARINDA08:55 AM 77(77/64) 72 78 85 30 45 @ 04:35 AM 30.08 10 0
HPTHampton08:55 AM 72(72/64) 61 72 68 10 1111 @ 08:55 AM 30.07 10 0
AXAALGONA08:55 AM 72(72/64) 61 72 68 10 612 @ 12:55 AM 30.11 10 0
CAVCLARION08:55 AM 70(72/64) 61 70 73 20 6G1213 @ 08:35 AM 30.09 10 0
SLBStorm Lake08:55 AM 70(72/64) 59 70 68 40 813 @ 08:15 AM 30.11 10 0
EBSWebster City08:55 AM 72(72/64) 61 72 68 10 1010 @ 08:35 AM 30.07 10 0
FXYForest City08:55 AM 72(72/63) 61 72 68 10 59 @ 03:35 AM 30.09 10 0
ORCOrange City08:55 AM 70(70/63) 61 70 73 50 45 @ 12:15 AM 30.12 10 0
CKPCherokee08:55 AM 69(71/62) 60 69 73 30 68 @ 12:35 AM 30.11 10 0
LRJLE MARS08:55 AM 70(70/61) 61 70 73 30 56 @ 07:15 AM 30.12 10 0
SHLSHELDON08:55 AM 68(68/57) 63 69 84 10 35 @ 12:15 AM 30.11 10 0